createdAt,value
2022-07-31T00:01:15.949Z,15.50
2022-07-31T00:03:42.791Z,15.60
2022-07-31T00:06:09.717Z,15.70
2022-07-31T00:08:36.400Z,15.90
2022-07-31T00:11:03.187Z,16.00
2022-07-31T00:13:58.110Z,16.30
2022-07-31T00:16:17.307Z,15.50
2022-07-31T00:18:44.105Z,17.00
2022-07-31T00:21:10.850Z,17.00
2022-07-31T00:23:37.543Z,16.80
2022-07-31T00:26:04.365Z,18.00
2022-07-31T00:28:31.108Z,16.60
2022-07-31T00:30:57.795Z,15.60
2022-07-31T00:33:24.534Z,17.10
2022-07-31T00:35:51.212Z,15.70
2022-07-31T00:38:26.972Z,15.70
2022-07-31T00:40:54.304Z,15.70
2022-07-31T00:43:21.093Z,15.70
2022-07-31T00:45:56.257Z,15.80
2022-07-31T00:48:28.497Z,17.30
2022-07-31T00:50:56.572Z,16.30
2022-07-31T00:53:23.274Z,15.90
2022-07-31T00:55:51.670Z,16.00
2022-07-31T00:58:19.201Z,16.40
2022-07-31T01:00:46.036Z,16.20
2022-07-31T01:03:12.836Z,17.80
2022-07-31T01:05:39.538Z,16.00
2022-07-31T01:08:06.437Z,16.10
2022-07-31T01:10:41.129Z,15.70
2022-07-31T01:13:10.586Z,15.70
2022-07-31T01:15:38.008Z,17.30
2022-07-31T01:18:05.010Z,16.80
2022-07-31T01:20:33.117Z,15.90
2022-07-31T01:23:13.664Z,15.90
2022-07-31T01:26:00.448Z,16.20
2022-07-31T01:28:46.109Z,16.00
2022-07-31T01:31:26.801Z,16.10
2022-07-31T01:33:58.358Z,16.10
2022-07-31T01:36:27.036Z,16.00
2022-07-31T01:38:55.819Z,16.00
2022-07-31T01:41:26.790Z,16.80
2022-07-31T01:43:58.014Z,15.50
2022-07-31T01:46:26.479Z,16.80
2022-07-31T01:48:54.665Z,15.20
2022-07-31T01:51:23.676Z,16.30
2022-07-31T01:53:51.166Z,15.20
2022-07-31T01:56:18.759Z,15.20
2022-07-31T01:58:46.853Z,15.70
2022-07-31T02:01:14.022Z,16.20
2022-07-31T02:03:43.636Z,16.10
2022-07-31T02:06:15.928Z,16.90
2022-07-31T02:08:45.048Z,15.50
2022-07-31T02:11:14.134Z,16.50
2022-07-31T02:13:40.842Z,15.80
2022-07-31T02:16:07.987Z,16.50
2022-07-31T02:18:34.859Z,15.90
2022-07-31T02:21:01.593Z,16.00
2022-07-31T02:23:28.235Z,16.90
2022-07-31T02:25:55.107Z,16.70
2022-07-31T02:28:24.496Z,16.70
2022-07-31T02:30:51.812Z,16.10
2022-07-31T02:33:23.827Z,16.70
2022-07-31T02:35:51.265Z,16.10
2022-07-31T02:38:23.413Z,16.20
2022-07-31T02:40:51.130Z,16.60
2022-07-31T02:43:18.170Z,16.50
2022-07-31T02:45:44.869Z,18.80
2022-07-31T02:48:11.649Z,16.80
2022-07-31T02:50:40.729Z,16.10
2022-07-31T02:53:07.654Z,16.90
2022-07-31T02:55:34.618Z,17.30
2022-07-31T02:58:01.787Z,17.20
2022-07-31T03:00:28.689Z,17.10
2022-07-31T03:02:55.535Z,17.70
2022-07-31T03:05:22.481Z,17.20
2022-07-31T03:07:49.185Z,16.50
2022-07-31T03:10:15.871Z,16.10
2022-07-31T03:12:43.744Z,16.70
2022-07-31T03:15:12.695Z,16.20
2022-07-31T03:17:41.015Z,15.30
2022-07-31T03:20:09.275Z,17.20
2022-07-31T03:22:36.171Z,15.00
2022-07-31T03:25:03.965Z,15.30
2022-07-31T03:27:30.743Z,15.00
2022-07-31T03:29:57.414Z,15.00
2022-07-31T03:32:24.115Z,15.00
2022-07-31T03:34:50.795Z,16.20
2022-07-31T03:37:17.486Z,15.10
2022-07-31T03:39:44.126Z,15.70
2022-07-31T03:42:18.566Z,16.10
2022-07-31T03:44:46.411Z,15.40
2022-07-31T03:47:13.115Z,17.00
2022-07-31T03:49:43.444Z,16.50
2022-07-31T03:52:12.599Z,17.10
2022-07-31T03:54:42.955Z,15.60
2022-07-31T03:57:09.952Z,16.00
2022-07-31T03:59:39.840Z,16.20
2022-07-31T04:02:12.856Z,14.60
2022-07-31T04:04:39.913Z,15.70
2022-07-31T04:07:06.631Z,16.90
2022-07-31T04:09:33.288Z,17.20
2022-07-31T04:12:00.176Z,15.30
2022-07-31T04:14:26.913Z,15.90
2022-07-31T04:16:53.571Z,16.70
2022-07-31T04:19:20.205Z,17.20
2022-07-31T04:21:46.920Z,16.60
2022-07-31T04:24:16.958Z,16.90
2022-07-31T04:26:44.420Z,15.80
2022-07-31T04:29:11.293Z,17.70
2022-07-31T04:31:38.129Z,17.60
2022-07-31T04:34:04.790Z,16.10
2022-07-31T04:36:31.549Z,16.20
2022-07-31T04:38:59.040Z,16.40
2022-07-31T04:41:25.854Z,19.00
2022-07-31T04:43:52.812Z,16.40
2022-07-31T04:46:19.616Z,18.00
2022-07-31T04:48:46.298Z,18.20
2022-07-31T04:51:16.787Z,18.50
2022-07-31T04:53:43.849Z,17.10
2022-07-31T04:56:29.346Z,17.80
2022-07-31T04:58:55.985Z,17.40
2022-07-31T05:01:23.032Z,17.40
2022-07-31T05:03:49.749Z,17.30
2022-07-31T05:06:16.728Z,17.60
2022-07-31T05:08:43.914Z,17.50
2022-07-31T05:11:22.882Z,17.30
2022-07-31T05:13:54.535Z,18.70
2022-07-31T05:16:21.675Z,17.50
2022-07-31T05:18:48.765Z,17.50
2022-07-31T05:21:16.467Z,17.50
2022-07-31T05:23:44.059Z,17.40
2022-07-31T05:26:11.036Z,18.50
2022-07-31T05:28:37.981Z,18.40
2022-07-31T05:31:05.300Z,17.50
2022-07-31T05:33:32.003Z,18.20
2022-07-31T05:35:58.825Z,17.60
2022-07-31T05:38:25.489Z,18.60
2022-07-31T05:40:52.394Z,19.30
2022-07-31T05:43:19.375Z,17.70
2022-07-31T05:45:49.018Z,19.10
2022-07-31T05:48:16.186Z,18.50
2022-07-31T05:50:43.347Z,19.20
2022-07-31T05:53:13.132Z,17.80
2022-07-31T05:55:39.753Z,19.20
2022-07-31T05:58:06.440Z,18.00
2022-07-31T06:00:33.573Z,19.00
2022-07-31T06:03:00.623Z,18.40
2022-07-31T06:05:30.601Z,19.40
2022-07-31T06:07:57.282Z,18.40
2022-07-31T06:10:24.234Z,19.60
2022-07-31T06:12:50.963Z,19.50
2022-07-31T06:15:17.904Z,18.60
2022-07-31T06:17:45.062Z,19.10
2022-07-31T06:20:11.985Z,20.20
2022-07-31T06:22:40.596Z,18.80
2022-07-31T06:25:08.881Z,18.90
2022-07-31T06:27:37.164Z,19.10
2022-07-31T06:30:06.922Z,20.20
2022-07-31T06:32:34.151Z,19.20
2022-07-31T06:35:01.204Z,19.90
2022-07-31T06:37:30.922Z,19.30
2022-07-31T06:39:57.572Z,19.30
2022-07-31T06:42:25.427Z,20.10
2022-07-31T06:44:52.970Z,21.70
2022-07-31T06:47:20.815Z,20.80
2022-07-31T06:49:48.684Z,19.80
2022-07-31T06:52:16.163Z,22.40
2022-07-31T06:54:44.139Z,20.00
2022-07-31T06:57:11.215Z,20.00
2022-07-31T06:59:39.164Z,21.50
2022-07-31T07:02:08.373Z,20.20
2022-07-31T07:05:04.507Z,20.20
2022-07-31T07:07:22.174Z,20.30
2022-07-31T07:09:48.994Z,21.30
2022-07-31T07:12:16.852Z,20.50
2022-07-31T07:14:44.064Z,20.50
2022-07-31T07:17:10.752Z,20.60
2022-07-31T07:19:39.938Z,20.60
2022-07-31T07:22:06.797Z,20.70
2022-07-31T07:24:33.665Z,21.50
2022-07-31T07:27:00.295Z,22.40
2022-07-31T07:29:26.909Z,21.40
2022-07-31T07:31:55.996Z,21.20
2022-07-31T07:34:22.665Z,21.30
2022-07-31T07:36:49.329Z,21.30
2022-07-31T07:39:16.040Z,23.10
2022-07-31T07:41:42.826Z,22.70
2022-07-31T07:44:09.493Z,22.80
2022-07-31T07:46:36.206Z,22.10
2022-07-31T07:49:03.763Z,22.30
2022-07-31T07:51:30.425Z,22.50
2022-07-31T07:53:57.101Z,22.70
2022-07-31T07:56:24.513Z,22.80
2022-07-31T07:58:53.914Z,23.00
2022-07-31T08:01:20.838Z,23.10
2022-07-31T08:03:52.021Z,24.20
2022-07-31T08:06:20.375Z,24.40
2022-07-31T08:08:47.206Z,23.40
2022-07-31T08:11:17.337Z,23.40
2022-07-31T08:13:49.813Z,23.40
2022-07-31T08:16:17.102Z,23.30
2022-07-31T08:18:43.811Z,23.30
2022-07-31T08:21:10.496Z,23.30
2022-07-31T08:23:37.243Z,23.30
2022-07-31T08:26:08.560Z,23.30
2022-07-31T08:28:36.264Z,23.30
2022-07-31T08:31:03.299Z,23.40
2022-07-31T08:33:30.259Z,23.50
2022-07-31T08:35:56.896Z,23.50
2022-07-31T08:38:23.732Z,23.60
2022-07-31T08:40:50.570Z,23.50
2022-07-31T08:44:02.129Z,23.70
2022-07-31T08:46:07.262Z,23.80
2022-07-31T08:48:35.716Z,23.90
2022-07-31T08:51:04.170Z,24.10
2022-07-31T08:53:33.042Z,23.90
2022-07-31T08:56:00.397Z,24.30
2022-07-31T08:58:27.126Z,24.00
2022-07-31T09:00:53.861Z,24.10
2022-07-31T09:03:20.644Z,25.70
2022-07-31T09:05:47.269Z,24.30
2022-07-31T09:08:14.968Z,24.50
2022-07-31T09:10:47.580Z,24.70
2022-07-31T09:13:17.915Z,24.90
2022-07-31T09:15:44.775Z,24.90
2022-07-31T09:18:18.863Z,25.00
2022-07-31T09:20:56.270Z,25.00
2022-07-31T09:23:23.359Z,25.20
2022-07-31T09:25:57.219Z,25.10
2022-07-31T09:28:37.296Z,25.40
2022-07-31T09:31:07.270Z,25.60
2022-07-31T09:33:34.195Z,25.70
2022-07-31T09:36:00.978Z,25.70
2022-07-31T09:38:32.503Z,25.80
2022-07-31T09:41:53.558Z,25.80
2022-07-31T09:43:59.673Z,25.80
2022-07-31T09:46:42.933Z,25.70
2022-07-31T09:49:09.759Z,25.90
2022-07-31T09:51:43.697Z,25.80
2022-07-31T09:54:23.194Z,26.00
2022-07-31T09:56:50.428Z,26.10
2022-07-31T09:59:17.299Z,26.20
2022-07-31T10:01:47.801Z,26.20
2022-07-31T10:04:20.219Z,26.40
2022-07-31T10:06:47.795Z,26.50
2022-07-31T10:09:15.252Z,26.50
2022-07-31T10:11:42.570Z,26.70
2022-07-31T10:14:11.467Z,26.60
2022-07-31T10:16:39.908Z,26.70
2022-07-31T10:19:11.529Z,26.70
2022-07-31T10:21:40.437Z,26.60
2022-07-31T10:24:09.706Z,26.60
2022-07-31T10:26:59.154Z,26.60
2022-07-31T10:29:23.790Z,26.90
2022-07-31T10:31:50.803Z,27.10
2022-07-31T10:34:17.709Z,27.40
2022-07-31T10:36:46.700Z,27.50
2022-07-31T10:39:28.600Z,27.50
2022-07-31T10:42:19.052Z,27.50
2022-07-31T10:44:49.830Z,27.50
2022-07-31T10:47:16.926Z,27.50
2022-07-31T10:49:44.823Z,27.40
2022-07-31T10:52:11.707Z,27.40
2022-07-31T10:54:39.247Z,27.40
2022-07-31T10:57:06.280Z,27.30
2022-07-31T10:59:33.140Z,27.30
2022-07-31T11:01:59.881Z,27.10
2022-07-31T11:04:32.796Z,27.10
2022-07-31T11:07:02.030Z,27.00
2022-07-31T11:09:29.646Z,27.10
2022-07-31T11:11:56.531Z,27.20
2022-07-31T11:14:35.954Z,27.30
2022-07-31T11:17:04.510Z,27.50
2022-07-31T11:19:41.127Z,27.30
2022-07-31T11:22:31.513Z,27.20
2022-07-31T11:24:59.443Z,27.00
2022-07-31T11:27:29.974Z,27.10
2022-07-31T11:30:06.644Z,27.20
2022-07-31T11:32:35.958Z,27.00
2022-07-31T11:35:02.675Z,27.40
2022-07-31T11:37:46.627Z,26.70
2022-07-31T11:40:18.705Z,26.90
2022-07-31T11:43:04.668Z,27.00
2022-07-31T11:45:45.319Z,27.10
2022-07-31T11:48:14.479Z,27.20
2022-07-31T11:50:42.815Z,27.30
2022-07-31T11:53:09.501Z,27.40
2022-07-31T11:55:45.403Z,27.30
2022-07-31T11:58:12.135Z,27.40
2022-07-31T12:00:38.839Z,27.40
2022-07-31T12:03:05.823Z,27.60
2022-07-31T12:05:38.628Z,27.50
2022-07-31T12:08:06.494Z,27.40
2022-07-31T12:10:33.272Z,27.40
2022-07-31T12:13:00.505Z,27.60
2022-07-31T12:15:27.235Z,27.80
2022-07-31T12:18:05.132Z,27.90
2022-07-31T12:20:36.593Z,28.00
2022-07-31T12:23:04.990Z,28.10
2022-07-31T12:25:41.963Z,28.10
2022-07-31T12:28:09.367Z,28.20
2022-07-31T12:30:36.102Z,28.30
2022-07-31T12:33:10.013Z,28.40
2022-07-31T12:35:55.693Z,28.30
2022-07-31T12:38:45.150Z,28.40
2022-07-31T12:41:14.157Z,28.30
2022-07-31T12:43:51.726Z,28.20
2022-07-31T12:46:23.081Z,28.00
2022-07-31T12:48:49.929Z,27.90
2022-07-31T12:51:19.889Z,27.80
2022-07-31T12:54:06.924Z,27.60
2022-07-31T12:56:34.128Z,27.60
2022-07-31T12:59:02.296Z,27.60
2022-07-31T13:01:29.409Z,27.60
2022-07-31T13:03:57.059Z,26.80
2022-07-31T13:06:24.180Z,27.80
2022-07-31T13:08:50.820Z,27.90
2022-07-31T13:11:17.486Z,27.90
2022-07-31T13:13:44.215Z,28.00
2022-07-31T13:16:10.955Z,28.00
2022-07-31T13:18:38.469Z,28.10
2022-07-31T13:21:05.449Z,28.30
2022-07-31T13:23:32.109Z,28.40
2022-07-31T13:25:59.763Z,28.30
2022-07-31T13:28:26.777Z,28.20
2022-07-31T13:30:55.269Z,28.10
2022-07-31T13:33:22.203Z,28.20
2022-07-31T13:35:48.986Z,28.20
2022-07-31T13:38:15.715Z,28.20
2022-07-31T13:41:01.234Z,28.40
2022-07-31T13:43:27.878Z,28.10
2022-07-31T13:45:54.565Z,27.90
2022-07-31T13:48:23.826Z,27.80
2022-07-31T13:50:50.514Z,27.70
2022-07-31T13:53:17.169Z,27.80
2022-07-31T13:55:48.398Z,28.00
2022-07-31T13:58:16.779Z,28.30
2022-07-31T14:00:46.630Z,28.40
2022-07-31T14:03:15.187Z,28.40
2022-07-31T14:05:46.434Z,28.50
2022-07-31T14:08:29.899Z,28.50
2022-07-31T14:11:00.828Z,28.60
2022-07-31T14:13:27.641Z,28.60
2022-07-31T14:15:54.657Z,28.70
2022-07-31T14:18:23.352Z,28.80
2022-07-31T14:20:50.480Z,29.00
2022-07-31T14:23:17.152Z,29.10
2022-07-31T14:25:43.964Z,29.20
2022-07-31T14:28:10.838Z,29.40
2022-07-31T14:30:40.252Z,29.40
2022-07-31T14:33:07.284Z,29.10
2022-07-31T14:35:34.016Z,28.80
2022-07-31T14:38:04.267Z,28.60
2022-07-31T14:40:31.323Z,28.30
2022-07-31T14:42:58.127Z,28.00
2022-07-31T14:45:25.278Z,27.90
2022-07-31T14:47:52.002Z,28.00
2022-07-31T14:50:19.695Z,28.30
2022-07-31T14:52:46.983Z,28.50
2022-07-31T14:55:13.756Z,28.60
2022-07-31T14:57:40.510Z,28.90
2022-07-31T15:00:13.466Z,29.00
2022-07-31T15:02:41.123Z,29.10
2022-07-31T15:06:42.346Z,28.90
2022-07-31T15:07:54.909Z,28.90
2022-07-31T15:10:21.843Z,28.80
2022-07-31T15:12:50.022Z,28.60
2022-07-31T15:15:16.863Z,28.60
2022-07-31T15:17:43.515Z,28.80
2022-07-31T15:20:10.894Z,29.00
2022-07-31T15:22:37.574Z,29.10
2022-07-31T15:25:04.380Z,29.10
2022-07-31T15:27:31.062Z,29.00
2022-07-31T15:30:05.705Z,28.80
2022-07-31T15:32:38.104Z,28.70
2022-07-31T15:35:06.033Z,28.40
2022-07-31T15:37:36.825Z,28.30
2022-07-31T15:40:05.152Z,28.30
2022-07-31T15:42:32.599Z,28.40
2022-07-31T15:44:59.251Z,28.60
2022-07-31T15:47:25.926Z,28.80
2022-07-31T15:49:52.641Z,29.00
2022-07-31T15:52:19.752Z,29.10
2022-07-31T15:54:46.857Z,29.00
2022-07-31T15:57:13.685Z,29.00
2022-07-31T15:59:41.614Z,28.90
2022-07-31T16:02:08.503Z,28.90
2022-07-31T16:04:36.758Z,28.70
2022-07-31T16:08:30.365Z,28.40
2022-07-31T16:10:15.591Z,28.30
2022-07-31T16:12:44.752Z,28.30
2022-07-31T16:15:12.460Z,28.30
2022-07-31T16:17:39.624Z,28.20
2022-07-31T16:20:25.485Z,28.20
2022-07-31T16:22:56.949Z,28.20
2022-07-31T16:25:24.244Z,28.10
2022-07-31T16:27:50.962Z,28.10
2022-07-31T16:30:17.613Z,28.00
2022-07-31T16:32:44.683Z,28.00
2022-07-31T16:35:12.185Z,27.90
2022-07-31T16:37:52.032Z,27.90
2022-07-31T16:40:30.758Z,27.90
2022-07-31T16:43:50.672Z,28.00
2022-07-31T16:45:52.321Z,28.00
2022-07-31T16:48:19.060Z,28.00
2022-07-31T16:50:52.896Z,28.00
2022-07-31T16:54:11.111Z,27.90
2022-07-31T16:56:15.150Z,28.00
2022-07-31T16:58:42.071Z,27.90
2022-07-31T17:01:56.906Z,27.90
2022-07-31T17:04:01.460Z,27.80
2022-07-31T17:06:36.481Z,27.60
2022-07-31T17:09:15.829Z,27.60
2022-07-31T17:11:52.284Z,27.40
2022-07-31T17:14:20.455Z,27.50
2022-07-31T17:16:49.212Z,27.40
2022-07-31T17:19:42.860Z,27.40
2022-07-31T17:22:07.605Z,27.40
2022-07-31T17:24:37.634Z,27.30
2022-07-31T17:27:05.660Z,27.30
2022-07-31T17:29:32.585Z,27.30
2022-07-31T17:31:59.284Z,27.30
2022-07-31T17:34:25.967Z,27.20
2022-07-31T17:36:52.613Z,27.20
2022-07-31T17:39:19.388Z,27.20
2022-07-31T17:41:46.022Z,27.10
2022-07-31T17:44:14.559Z,27.10
2022-07-31T17:46:48.341Z,27.00
2022-07-31T17:49:19.610Z,27.10
2022-07-31T17:51:59.457Z,27.00
2022-07-31T17:54:31.543Z,26.80
2022-07-31T17:56:58.914Z,26.80
2022-07-31T17:59:26.011Z,26.70
2022-07-31T18:01:59.454Z,26.70
2022-07-31T18:04:30.146Z,26.50
2022-07-31T18:06:57.823Z,26.60
2022-07-31T18:09:24.784Z,26.50
2022-07-31T18:11:52.433Z,26.50
2022-07-31T18:14:19.477Z,26.40
2022-07-31T18:16:47.140Z,26.40
2022-07-31T18:19:14.326Z,26.30
2022-07-31T18:21:41.084Z,26.20
2022-07-31T18:24:08.008Z,26.20
2022-07-31T18:26:37.690Z,26.20
2022-07-31T18:29:05.185Z,26.10
2022-07-31T18:31:34.552Z,26.10
2022-07-31T18:34:03.161Z,26.00
2022-07-31T18:36:29.907Z,25.90
2022-07-31T18:38:57.745Z,25.80
2022-07-31T18:41:24.815Z,25.80
2022-07-31T18:43:51.584Z,25.70
2022-07-31T18:46:19.965Z,25.60
2022-07-31T18:48:48.191Z,25.50
2022-07-31T18:51:17.599Z,25.40
2022-07-31T18:53:44.362Z,25.30
2022-07-31T18:56:11.189Z,25.20
2022-07-31T18:58:37.997Z,25.10
2022-07-31T19:01:04.745Z,25.00
2022-07-31T19:03:31.583Z,24.90
2022-07-31T19:05:58.735Z,24.80
2022-07-31T19:08:25.461Z,24.60
2022-07-31T19:10:53.674Z,24.40
2022-07-31T19:13:21.106Z,24.20
2022-07-31T19:15:48.386Z,24.10
2022-07-31T19:18:15.472Z,24.00
2022-07-31T19:21:00.264Z,23.90
2022-07-31T19:23:32.164Z,23.70
2022-07-31T19:26:04.427Z,23.60
2022-07-31T19:28:31.898Z,23.50
2022-07-31T19:30:58.650Z,23.40
2022-07-31T19:33:25.512Z,23.30
2022-07-31T19:35:56.816Z,23.10
2022-07-31T19:38:27.768Z,23.00
2022-07-31T19:40:54.699Z,22.90
2022-07-31T19:43:21.511Z,22.60
2022-07-31T19:46:02.486Z,23.10
2022-07-31T19:48:36.688Z,22.40
2022-07-31T19:51:04.195Z,22.30
2022-07-31T19:53:31.183Z,22.30
2022-07-31T19:55:58.016Z,22.20
2022-07-31T19:58:24.837Z,22.10
2022-07-31T20:00:51.579Z,22.00
2022-07-31T20:03:18.828Z,22.00
2022-07-31T20:05:45.598Z,21.80
2022-07-31T20:08:12.430Z,21.70
2022-07-31T20:10:39.264Z,21.60
2022-07-31T20:13:05.962Z,21.50
2022-07-31T20:15:51.117Z,21.40
2022-07-31T20:18:27.969Z,21.20
2022-07-31T20:20:56.963Z,21.10
2022-07-31T20:23:24.166Z,20.90
2022-07-31T20:25:50.835Z,20.90
2022-07-31T20:28:17.530Z,20.90
2022-07-31T20:30:44.253Z,20.90
2022-07-31T20:33:11.428Z,20.80
2022-07-31T20:35:49.259Z,20.80
2022-07-31T20:38:20.381Z,20.70
2022-07-31T20:40:53.408Z,20.60
2022-07-31T20:43:25.606Z,20.60
2022-07-31T20:45:53.212Z,20.60
2022-07-31T20:48:23.869Z,20.60
2022-07-31T20:50:51.031Z,20.60
2022-07-31T20:53:17.853Z,20.50
2022-07-31T20:55:47.454Z,20.50
2022-07-31T20:58:14.334Z,20.50
2022-07-31T21:00:41.691Z,20.40
2022-07-31T21:03:08.387Z,20.40
2022-07-31T21:05:35.038Z,20.40
2022-07-31T21:08:01.884Z,20.40
2022-07-31T21:10:29.796Z,20.50
2022-07-31T21:12:57.299Z,20.60
2022-07-31T21:15:41.699Z,20.60
2022-07-31T21:18:11.909Z,20.60
2022-07-31T21:20:51.911Z,20.60
2022-07-31T21:23:26.897Z,20.50
2022-07-31T21:25:54.448Z,20.50
2022-07-31T21:28:21.715Z,20.40
2022-07-31T21:30:48.608Z,20.50
2022-07-31T21:33:15.900Z,20.40
2022-07-31T21:35:42.727Z,20.40
2022-07-31T21:38:15.307Z,20.40
2022-07-31T21:40:42.769Z,20.30
2022-07-31T21:43:09.964Z,20.40
2022-07-31T21:45:50.824Z,21.40
2022-07-31T21:48:25.732Z,20.30
2022-07-31T21:50:53.002Z,20.20
2022-07-31T21:53:19.753Z,20.30
2022-07-31T21:55:46.535Z,20.30
2022-07-31T21:58:13.223Z,20.20
2022-07-31T22:00:40.038Z,20.20
2022-07-31T22:03:07.060Z,20.10
2022-07-31T22:05:52.568Z,20.10
2022-07-31T22:08:19.523Z,20.00
2022-07-31T22:10:46.826Z,20.00
2022-07-31T22:13:13.525Z,19.90
2022-07-31T22:15:55.633Z,19.90
2022-07-31T22:18:34.537Z,19.80
2022-07-31T22:21:02.800Z,19.80
2022-07-31T22:23:30.174Z,19.70
2022-07-31T22:25:57.508Z,19.70
2022-07-31T22:28:25.454Z,19.60
2022-07-31T22:30:52.672Z,19.60
2022-07-31T22:33:19.752Z,19.60
2022-07-31T22:35:58.915Z,19.60
2022-07-31T22:38:28.248Z,19.60
2022-07-31T22:40:55.255Z,19.60
2022-07-31T22:44:11.626Z,19.50
2022-07-31T22:46:09.933Z,19.50
2022-07-31T22:48:36.705Z,19.50
2022-07-31T22:51:04.230Z,19.50
2022-07-31T22:53:30.946Z,19.50
2022-07-31T22:55:57.665Z,19.50
2022-07-31T22:58:24.460Z,19.50
2022-07-31T23:00:51.186Z,19.50
2022-07-31T23:03:17.867Z,19.50
2022-07-31T23:06:03.673Z,19.40
2022-07-31T23:08:31.219Z,19.40
2022-07-31T23:10:58.055Z,19.40
2022-07-31T23:13:24.780Z,19.40
2022-07-31T23:15:51.493Z,19.40
2022-07-31T23:18:18.222Z,19.10
2022-07-31T23:20:44.889Z,19.10
2022-07-31T23:23:11.571Z,19.00
2022-07-31T23:25:38.235Z,18.90
2022-07-31T23:28:05.089Z,18.90
2022-07-31T23:30:31.764Z,18.90
2022-07-31T23:32:58.420Z,18.90
2022-07-31T23:35:25.231Z,18.90
2022-07-31T23:37:51.974Z,19.10
2022-07-31T23:40:18.680Z,19.00
2022-07-31T23:42:45.427Z,19.10
2022-07-31T23:45:15.737Z,19.10
2022-07-31T23:47:45.682Z,19.10
2022-07-31T23:50:13.595Z,19.20
2022-07-31T23:52:40.441Z,19.00
2022-07-31T23:55:07.281Z,18.80
2022-07-31T23:57:34.645Z,19.80
